Terminal Aerodrome Forecast
Issued by NWS Wilmington, OH

Current Version | Previous Version | Text Only | Print | Product List | Glossary Off
Versions: 1 2 3 4 5 6 7 8 9 10 11 12 13

000
FTUS41 KILN 151700 RRA
TAFCMH
TAF
KCMH 151742Z 1518/1618 33015G22KT P6SM VCSH OVC035
     FM152300 33014KT P6SM BKN040
     FM160200 34010KT P6SM SCT040
     FM160600 36004KT P6SM SKC
     FM160900 00000KT P6SM SKC
     FM161200 14006KT P6SM FEW250=

USA.gov is the U.S. government's official web portal to all federal, state and local government web resources and services.